Time;durP1;ratioP1;P1;durP2;ratioP2;P2;SDS_P1;SDS_P2;PMS_P1;PMS_P2;Temp;Humidity;BMP_temperature;BMP_pressure;BME280_temperature;BME280_humidity;BME280_pressure;Samples;Min_cycle;Max_cycle;Signal;HPM_P1;HPM_P2
2024/02/14 00:02:15;;;;;;;;;;;;;;;17.25;44.36;100299.69;4899800;29;1244;-47
2024/02/14 00:04:41;;;;;;;;;;;;;;;16.33;46.55;100300.88;4901200;29;1090;-47
2024/02/14 00:07:07;;;;;;;;;;;;;;;15.93;47.21;100305.66;4883383;29;1057;-51
2024/02/14 00:09:32;;;;;;;;;;;;;;;15.66;48.18;100306.81;4899442;29;904;-48
2024/02/14 00:11:58;;;;;;;;;;;;;;;15.46;48.21;100311.81;4900641;29;1086;-50
2024/02/14 00:14:24;;;;;;;;;;;;;;;15.27;48.85;100312.34;4901131;29;1142;-48
2024/02/14 00:16:50;;;;;;;;;;;;;;;16.54;46.15;100308.91;4895592;29;1025;-49
2024/02/14 00:19:16;;;;;;;;;;;;;;;17.41;44.14;100316.16;4882429;29;1911;-50
2024/02/14 00:21:42;;;;;;;;;;;;;;;16.38;46.16;100322.56;4882715;29;884;-47
2024/02/14 00:24:07;;;;;;;;;;;;;;;15.90;47.26;100319.13;4882269;29;1110;-49
2024/02/14 00:26:33;;;;;;;;;;;;;;;15.74;47.72;100322.13;4881965;29;1233;-49
2024/02/14 00:28:59;;;;;;;;;;;;;;;15.56;48.53;100322.56;4882053;29;1105;-47
2024/02/14 00:31:24;;;;;;;;;;;;;;;15.45;48.97;100328.66;4886570;29;1114;-49
2024/02/14 00:33:50;;;;;;;;;;;;;;;16.93;45.27;100328.88;4882009;29;909;-48
2024/02/14 00:36:16;;;;;;;;;;;;;;;17.20;44.56;100323.13;4899372;29;1090;-49
2024/02/14 00:38:42;;;;;;;;;;;;;;;16.35;46.26;100323.66;4900063;29;1965;-49
2024/02/14 00:41:07;;;;;;;;;;;;;;;15.97;47.35;100323.00;4900107;29;1077;-49
2024/02/14 00:43:33;;;;;;;;;;;;;;;15.72;48.06;100319.59;4903676;29;1035;-48
2024/02/14 00:45:58;;;;;;;;;;;;;;;15.47;48.73;100321.44;4903618;29;1193;-50
2024/02/14 00:48:24;;;;;;;;;;;;;;;15.32;48.86;100319.94;4893344;29;1108;-49
2024/02/14 00:50:49;;;;;;;;;;;;;;;16.48;46.50;100318.22;4897657;29;1243;-51
2024/02/14 00:53:15;;;;;;;;;;;;;;;17.31;44.29;100321.41;4895281;29;1093;-47
2024/02/14 00:55:40;;;;;;;;;;;;;;;16.38;46.02;100325.25;4902694;29;1021;-50
2024/02/14 00:58:06;;;;;;;;;;;;;;;15.95;47.44;100330.22;4895360;29;1920;-47
2024/02/14 01:00:32;;;;;;;;;;;;;;;15.66;47.82;100336.78;4887356;29;1133;-47
2024/02/14 01:02:58;;;;;;;;;;;;;;;15.52;48.38;100337.00;4895075;29;1142;-47
2024/02/14 01:05:24;;;;;;;;;;;;;;;16.09;47.50;100333.66;4903129;29;1071;-48
2024/02/14 01:07:49;;;;;;;;;;;;;;;17.33;44.37;100330.13;4893439;29;1047;-51
2024/02/14 01:10:15;;;;;;;;;;;;;;;16.67;45.57;100331.81;4901044;29;1062;-47
2024/02/14 01:12:40;;;;;;;;;;;;;;;16.08;46.93;100327.50;4893730;29;1241;-47
2024/02/14 01:15:06;;;;;;;;;;;;;;;15.78;47.89;100327.06;4900657;29;1112;-47
2024/02/14 01:17:33;;;;;;;;;;;;;;;15.54;48.20;100325.34;4903925;29;1113;-49
2024/02/14 01:19:58;;;;;;;;;;;;;;;15.45;48.45;100336.63;4901750;29;1919;-52
2024/02/14 01:22:24;;;;;;;;;;;;;;;15.97;47.79;100332.75;4893781;29;1087;-49
2024/02/14 01:24:50;;;;;;;;;;;;;;;17.28;44.65;100345.59;4902782;29;1078;-50
2024/02/14 01:27:16;;;;;;;;;;;;;;;16.58;45.96;100342.22;4893852;29;1138;-47
2024/02/14 01:29:42;;;;;;;;;;;;;;;16.04;46.95;100344.63;4900131;29;1086;-47
2024/02/14 01:32:09;;;;;;;;;;;;;;;15.78;47.94;100353.59;4901414;29;1164;-46
2024/02/14 01:34:35;;;;;;;;;;;;;;;15.57;48.58;100355.22;4884409;29;1039;-48
2024/02/14 01:37:00;;;;;;;;;;;;;;;15.39;48.98;100353.84;4894042;29;1145;-46
2024/02/14 01:39:26;;;;;;;;;;;;;;;16.93;45.48;100358.97;4902867;29;1907;-46
2024/02/14 01:41:51;;;;;;;;;;;;;;;16.82;45.14;100356.31;4893291;29;1086;-44
2024/02/14 01:44:17;;;;;;;;;;;;;;;16.08;47.29;100351.38;4899702;29;1159;-45
2024/02/14 01:46:43;;;;;;;;;;;;;;;15.76;48.00;100352.03;4903009;29;1058;-49
2024/02/14 01:49:09;;;;;;;;;;;;;;;15.55;48.11;100348.22;4890089;29;1220;-46
2024/02/14 01:51:35;;;;;;;;;;;;;;;15.39;48.57;100351.19;4902663;29;1162;-46
2024/02/14 01:54:01;;;;;;;;;;;;;;;16.48;46.60;100357.22;4885052;29;1201;-49
2024/02/14 01:56:27;;;;;;;;;;;;;;;17.26;44.50;100351.03;4893930;29;1154;-49
2024/02/14 01:58:53;;;;;;;;;;;;;;;16.38;46.43;100355.25;4902735;29;1906;-50
2024/02/14 02:01:18;;;;;;;;;;;;;;;15.90;47.26;100351.81;4916864;29;1090;-50
2024/02/14 02:03:44;;;;;;;;;;;;;;;15.67;47.86;100343.81;4885844;29;1116;-49
2024/02/14 02:06:10;;;;;;;;;;;;;;;15.49;48.42;100351.34;4892728;29;1125;-51
2024/02/14 02:08:36;;;;;;;;;;;;;;;15.44;48.95;100348.19;4896645;29;1186;-50
2024/02/14 02:11:02;;;;;;;;;;;;;;;16.94;45.36;100349.16;4894464;29;1206;-48
2024/02/14 02:13:27;;;;;;;;;;;;;;;16.80;45.19;100359.09;4902313;29;1070;-49
2024/02/14 02:15:53;;;;;;;;;;;;;;;16.09;47.00;100352.22;4902374;29;1067;-48
2024/02/14 02:18:19;;;;;;;;;;;;;;;15.78;47.49;100350.09;4902277;29;1985;-52
2024/02/14 02:20:45;;;;;;;;;;;;;;;15.57;48.23;100356.06;4901911;29;1115;-48
2024/02/14 02:23:14;;;;;;;;;;;;;;;15.40;48.40;100359.97;4912780;29;1131;-48
2024/02/14 02:25:40;;;;;;;;;;;;;;;15.78;47.96;100358.06;4894394;29;1162;-46
2024/02/14 02:28:06;;;;;;;;;;;;;;;17.16;45.01;100361.59;4901694;29;1133;-49
2024/02/14 02:30:31;;;;;;;;;;;;;;;16.89;44.83;100368.13;4901790;29;1419;-50
2024/02/14 02:32:58;;;;;;;;;;;;;;;16.18;46.74;100367.47;4901968;29;1158;-47
2024/02/14 02:35:24;;;;;;;;;;;;;;;15.86;47.74;100368.09;4891062;29;1049;-47
2024/02/14 02:37:50;;;;;;;;;;;;;;;15.58;48.16;100370.16;4887803;29;1022;-47
2024/02/14 02:40:16;;;;;;;;;;;;;;;15.48;48.59;100370.03;4890852;29;1906;-46
2024/02/14 02:42:43;;;;;;;;;;;;;;;15.40;49.05;100370.56;4888043;29;1078;-48
2024/02/14 02:45:09;;;;;;;;;;;;;;;16.89;45.43;100378.75;4890374;29;1125;-46
2024/02/14 02:47:34;;;;;;;;;;;;;;;16.93;45.02;100376.72;4887986;29;1099;-46
2024/02/14 02:50:02;;;;;;;;;;;;;;;16.12;46.79;100383.84;4901498;29;1149;-49
2024/02/14 02:52:27;;;;;;;;;;;;;;;15.73;47.68;100376.97;4896325;29;1170;-52
2024/02/14 02:54:53;;;;;;;;;;;;;;;15.63;48.24;100381.28;4894531;29;1121;-48
2024/02/14 02:57:19;;;;;;;;;;;;;;;15.45;48.31;100381.69;4899837;29;1047;-47
2024/02/14 02:59:47;;;;;;;;;;;;;;;16.44;46.46;100395.56;4901530;29;1902;-49
2024/02/14 03:02:12;;;;;;;;;;;;;;;17.07;44.71;100380.91;4901441;29;1074;-47
2024/02/14 03:04:38;;;;;;;;;;;;;;;16.18;46.37;100386.03;4901089;29;1092;-49
2024/02/14 03:07:06;;;;;;;;;;;;;;;15.85;47.58;100387.63;4896444;29;1194;-47
2024/02/14 03:09:32;;;;;;;;;;;;;;;15.61;47.71;100380.53;4889632;29;1189;-48
2024/02/14 03:11:58;;;;;;;;;;;;;;;15.39;48.61;100374.19;4889287;29;998;-48
2024/02/14 03:14:23;;;;;;;;;;;;;;;16.24;46.79;100388.22;4901017;29;1102;-50
2024/02/14 03:16:49;;;;;;;;;;;;;;;17.36;44.01;100385.69;4901249;29;1066;-49
2024/02/14 03:19:15;;;;;;;;;;;;;;;16.49;46.08;100391.59;4901337;29;1965;-47
2024/02/14 03:21:40;;;;;;;;;;;;;;;16.02;46.87;100384.56;4888674;29;1110;-51
2024/02/14 03:24:10;;;;;;;;;;;;;;;15.73;47.65;100394.69;4901622;29;1130;-48
2024/02/14 03:26:36;;;;;;;;;;;;;;;15.51;48.17;100385.69;4901090;29;1036;-48
2024/02/14 03:29:04;;;;;;;;;;;;;;;15.42;48.46;100396.03;4888684;29;1253;-51
2024/02/14 03:31:30;;;;;;;;;;;;;;;16.89;45.29;100398.22;4889015;29;1055;-48
2024/02/14 03:33:56;;;;;;;;;;;;;;;16.94;44.59;100395.19;4896662;29;1066;-51
2024/02/14 03:36:24;;;;;;;;;;;;;;;16.14;46.37;100406.66;4900905;29;1057;-49
2024/02/14 03:38:50;;;;;;;;;;;;;;;15.83;47.59;100410.75;4901114;29;1971;-48
2024/02/14 03:41:15;;;;;;;;;;;;;;;15.64;47.92;100405.03;4894067;29;1197;-48
2024/02/14 03:43:41;;;;;;;;;;;;;;;15.49;48.27;100404.38;4895534;29;1063;-48
2024/02/14 03:46:06;;;;;;;;;;;;;;;16.40;46.38;100408.22;4892158;29;848;-50
2024/02/14 03:48:32;;;;;;;;;;;;;;;17.30;44.01;100415.44;4895176;29;1129;-45
2024/02/14 03:50:58;;;;;;;;;;;;;;;16.35;46.24;100413.09;4893764;29;1070;-50
2024/02/14 03:53:23;;;;;;;;;;;;;;;15.94;46.95;100413.44;4896198;29;1117;-48
2024/02/14 03:55:49;;;;;;;;;;;;;;;15.70;47.80;100424.94;4896032;29;1097;-48
2024/02/14 03:58:16;;;;;;;;;;;;;;;15.54;48.26;100430.53;4884031;29;1985;-48
2024/02/14 04:00:43;;;;;;;;;;;;;;;15.38;48.45;100436.94;4887762;29;1031;-49
2024/02/14 04:03:12;;;;;;;;;;;;;;;16.67;45.58;100432.75;4900675;29;1066;-48
2024/02/14 04:05:38;;;;;;;;;;;;;;;17.26;43.88;100436.13;4900766;29;1054;-47
2024/02/14 04:08:03;;;;;;;;;;;;;;;16.33;46.27;100446.84;4889187;29;1134;-50
2024/02/14 04:10:29;;;;;;;;;;;;;;;15.93;46.88;100446.25;4886845;29;1031;-48
2024/02/14 04:12:55;;;;;;;;;;;;;;;15.66;47.66;100452.66;4896377;29;1075;-49
2024/02/14 04:15:20;;;;;;;;;;;;;;;15.48;48.24;100444.25;4899947;29;1085;-46
2024/02/14 04:17:46;;;;;;;;;;;;;;;15.86;47.53;100452.97;4897993;29;1185;-51
2024/02/14 04:20:11;;;;;;;;;;;;;;;17.19;44.44;100459.69;4896495;29;1907;-46
2024/02/14 04:22:37;;;;;;;;;;;;;;;16.91;44.63;100461.00;4896799;29;1026;-45
2024/02/14 04:25:02;;;;;;;;;;;;;;;16.14;46.52;100461.53;4886566;29;1155;-41
2024/02/14 04:27:28;;;;;;;;;;;;;;;15.86;47.38;100468.88;4904185;29;1061;-46
2024/02/14 04:29:54;;;;;;;;;;;;;;;15.58;48.11;100460.31;4903205;29;1074;-47
2024/02/14 04:32:20;;;;;;;;;;;;;;;15.43;48.10;100469.25;4885830;29;1071;-44
2024/02/14 04:34:45;;;;;;;;;;;;;;;15.78;47.84;100472.13;4897258;29;1066;-46
2024/02/14 04:37:13;;;;;;;;;;;;;;;17.17;44.58;100482.88;4885626;29;1062;-48
2024/02/14 04:39:42;;;;;;;;;;;;;;;16.59;45.29;100479.34;4885714;29;1903;-47
2024/02/14 04:42:08;;;;;;;;;;;;;;;15.99;46.76;100485.59;4903961;29;1046;-47
2024/02/14 04:44:36;;;;;;;;;;;;;;;15.70;47.60;100487.75;4891206;29;2057;-47
2024/02/14 04:47:02;;;;;;;;;;;;;;;15.55;47.99;100490.53;4894103;29;1816;-50
2024/02/14 04:49:30;;;;;;;;;;;;;;;15.34;48.26;100499.09;4893867;29;2196;-48
2024/02/14 04:51:57;;;;;;;;;;;;;;;16.36;46.50;100491.75;4894553;29;2081;-50
2024/02/14 04:54:22;;;;;;;;;;;;;;;17.37;43.63;100499.03;4899391;29;2044;-46
2024/02/14 04:56:48;;;;;;;;;;;;;;;16.40;45.84;100496.69;4900601;29;2344;-50
2024/02/14 04:59:13;;;;;;;;;;;;;;;15.93;46.86;100494.00;4890657;29;2230;-48
2024/02/14 05:01:39;;;;;;;;;;;;;;;15.72;47.28;100497.25;4898749;29;1175;-47
2024/02/14 05:04:06;;;;;;;;;;;;;;;15.47;47.87;100495.56;4900108;29;1451;-44
2024/02/14 05:06:32;;;;;;;;;;;;;;;15.38;48.42;100505.84;4890624;29;1030;-43
2024/02/14 05:08:58;;;;;;;;;;;;;;;16.81;44.67;100508.72;4895035;29;1114;-47
2024/02/14 05:11:23;;;;;;;;;;;;;;;17.38;43.40;100503.41;4894265;29;908;-46
2024/02/14 05:13:49;;;;;;;;;;;;;;;16.37;45.79;100509.34;4899921;29;1035;-46
2024/02/14 05:16:18;;;;;;;;;;;;;;;16.79;45.53;100507.97;4893561;29;1158;-50
2024/02/14 05:18:43;;;;;;;;;;;;;;;17.41;43.87;100515.59;4899205;29;1899;-46
2024/02/14 05:21:09;;;;;;;;;;;;;;;15.75;47.12;100520.91;4892311;29;1058;-50
2024/02/14 05:23:35;;;;;;;;;;;;;;;15.80;48.17;100528.53;4890664;29;879;-49
2024/02/14 05:26:04;;;;;;;;;;;;;;;17.76;43.90;100549.13;4903040;29;1003;-46
2024/02/14 05:28:30;;;;;;;;;;;;;;;16.09;46.75;100537.97;4899797;29;2017;-51
2024/02/14 05:30:59;;;;;;;;;;;;;;;15.50;47.35;100561.59;4902622;29;1174;-51
2024/02/14 05:33:24;;;;;;;;;;;;;;;17.03;45.77;100563.69;4903132;29;1026;-53
2024/02/14 05:35:50;;;;;;;;;;;;;;;16.96;45.50;100560.66;4898669;29;1170;-48
2024/02/14 05:38:16;;;;;;;;;;;;;;;15.89;47.39;100570.31;4889357;29;1906;-46
2024/02/14 05:40:43;;;;;;;;;;;;;;;15.48;46.89;100569.66;4900121;29;1415;-50
2024/02/14 05:43:09;;;;;;;;;;;;;;;17.34;45.41;100569.28;4883649;29;943;-47
2024/02/14 05:45:35;;;;;;;;;;;;;;;16.87;45.83;100574.66;4901806;29;1055;-49
2024/02/14 05:48:01;;;;;;;;;;;;;;;15.93;47.21;100581.53;4897334;29;936;-43
2024/02/14 05:50:26;;;;;;;;;;;;;;;15.63;46.89;100578.31;4899544;29;1201;-49
2024/02/14 05:52:52;;;;;;;;;;;;;;;15.82;47.53;100590.28;4902217;29;1015;-47
2024/02/14 05:55:17;;;;;;;;;;;;;;;15.85;47.49;100591.88;4905936;29;1337;-46
2024/02/14 05:57:43;;;;;;;;;;;;;;;16.73;46.90;100594.31;4900479;29;1213;-45
2024/02/14 06:00:10;;;;;;;;;;;;;;;17.80;44.26;100600.28;4900130;29;2709;-51
2024/02/14 06:02:39;;;;;;;;;;;;;;;16.18;46.80;100594.84;4892130;29;916;-45
2024/02/14 06:05:09;;;;;;;;;;;;;;;16.24;47.75;100597.88;4893899;29;1134;-43
2024/02/14 06:07:37;;;;;;;;;;;;;;;17.14;45.22;100597.41;4901457;29;1308;-50
2024/02/14 06:10:03;;;;;;;;;;;;;;;16.12;46.98;100593.47;4902285;29;896;-45
2024/02/14 06:12:29;;;;;;;;;;;;;;;15.70;46.66;100599.13;4901080;29;959;-54
2024/02/14 06:14:55;;;;;;;;;;;;;;;16.49;47.52;100600.50;4902221;29;1129;-46
2024/02/14 06:17:21;;;;;;;;;;;;;;;17.00;45.68;100601.09;4902233;29;1170;-46
2024/02/14 06:19:46;;;;;;;;;;;;;;;16.03;46.93;100605.63;4901943;29;1914;-48
2024/02/14 06:22:12;;;;;;;;;;;;;;;17.14;46.58;100613.38;4899347;29;1145;-45
2024/02/14 06:24:37;;;;;;;;;;;;;;;17.11;45.66;100606.50;4902006;29;1049;-46
2024/02/14 06:27:03;;;;;;;;;;;;;;;16.13;46.58;100616.41;4902079;29;1053;-48
2024/02/14 06:29:29;;;;;;;;;;;;;;;16.40;47.39;100616.16;4900055;29;2241;-51
2024/02/14 06:31:54;;;;;;;;;;;;;;;16.68;46.38;100625.69;4901305;29;1062;-46
2024/02/14 06:34:20;;;;;;;;;;;;;;;15.99;47.03;100626.22;4899980;29;1026;-48
2024/02/14 06:36:49;;;;;;;;;;;;;;;16.79;46.86;100625.72;4887285;29;1619;-46
2024/02/14 06:39:14;;;;;;;;;;;;;;;17.02;45.93;100629.28;4899245;29;1915;-46
2024/02/14 06:41:40;;;;;;;;;;;;;;;16.00;46.90;100629.72;4900842;29;1059;-47
2024/02/14 06:44:05;;;;;;;;;;;;;;;15.78;46.68;100639.22;4890646;29;1126;-45
2024/02/14 06:46:31;;;;;;;;;;;;;;;15.88;47.28;100631.44;4897323;29;1016;-47
2024/02/14 06:48:57;;;;;;;;;;;;;;;17.53;44.87;100636.09;4897893;29;1364;-47
2024/02/14 06:51:23;;;;;;;;;;;;;;;16.16;47.07;100646.22;4897314;29;1086;-51
2024/02/14 06:53:52;;;;;;;;;;;;;;;15.79;47.16;100656.81;4892635;29;1265;-51
2024/02/14 06:56:17;;;;;;;;;;;;;;;17.71;45.11;100653.28;4899548;29;1070;-57
2024/02/14 06:58:43;;;;;;;;;;;;;;;16.84;46.26;100647.47;4894408;29;2585;-51
2024/02/14 07:01:11;;;;;;;;;;;;;;;16.01;46.99;100655.31;4890946;29;1043;-47
2024/02/14 07:03:37;;;;;;;;;;;;;;;15.85;46.56;100660.84;4896006;29;1003;-53
2024/02/14 07:06:03;;;;;;;;;;;;;;;15.66;46.33;100660.31;4900291;29;1254;-46
2024/02/14 07:08:28;;;;;;;;;;;;;;;16.65;46.97;100663.94;4900797;29;1120;-47
2024/02/14 07:10:54;;;;;;;;;;;;;;;17.92;44.44;100655.16;4888524;29;1182;-50
2024/02/14 07:13:20;;;;;;;;;;;;;;;16.38;46.96;100649.13;4889380;29;1201;-49
2024/02/14 07:15:46;;;;;;;;;;;;;;;15.99;46.93;100655.41;4899826;29;1091;-50
2024/02/14 07:18:11;;;;;;;;;;;;;;;15.86;46.17;100663.38;4889559;29;1911;-50
2024/02/14 07:20:37;;;;;;;;;;;;;;;15.76;45.60;100672.94;4887628;29;1046;-46
2024/02/14 07:23:04;;;;;;;;;;;;;;;16.58;46.47;100671.50;4897694;29;1022;-49
2024/02/14 07:25:29;;;;;;;;;;;;;;;16.29;46.75;100674.53;4892014;29;1328;-45
2024/02/14 07:27:55;;;;;;;;;;;;;;;15.63;47.33;100676.44;4896867;29;2630;-49
2024/02/14 07:30:20;;;;;;;;;;;;;;;15.61;46.43;100673.06;4899920;29;1074;-49
2024/02/14 07:32:46;;;;;;;;;;;;;;;15.89;46.97;100680.88;4899870;29;1035;-50
2024/02/14 07:35:13;;;;;;;;;;;;;;;17.05;45.78;100670.69;4886701;29;1114;-49
2024/02/14 07:37:39;;;;;;;;;;;;;;;15.98;47.33;100682.88;4894080;29;1107;-48
2024/02/14 07:40:05;;;;;;;;;;;;;;;16.02;47.96;100688.81;4900606;29;1986;-49
2024/02/14 07:42:31;;;;;;;;;;;;;;;17.96;44.76;100677.06;4901178;29;1165;-54
2024/02/14 07:44:57;;;;;;;;;;;;;;;16.44;46.67;100682.31;4899499;29;1443;-47
2024/02/14 07:47:22;;;;;;;;;;;;;;;15.92;47.16;100680.66;4888470;29;967;-46
2024/02/14 07:49:48;;;;;;;;;;;;;;;15.65;46.88;100686.94;4900063;29;1288;-48
2024/02/14 07:52:13;;;;;;;;;;;;;;;17.06;46.54;100680.38;4902170;29;1075;-49
2024/02/14 07:54:39;;;;;;;;;;;;;;;16.76;46.17;100682.59;4901064;29;1056;-50
2024/02/14 07:57:05;;;;;;;;;;;;;;;15.90;47.27;100685.19;4904393;29;1142;-53
2024/02/14 07:59:30;;;;;;;;;;;;;;;15.79;46.45;100691.28;4897326;29;2717;-47
2024/02/14 08:01:57;;;;;;;;;;;;;;;16.50;47.34;100693.34;4899159;29;986;-47
2024/02/14 08:04:23;;;;;;;;;;;;;;;17.83;44.52;100695.84;4886262;29;1067;-45
2024/02/14 08:06:51;;;;;;;;;;;;;;;16.31;47.05;100701.81;4899881;29;1080;-47
2024/02/14 08:09:17;;;;;;;;;;;;;;;15.83;47.22;100695.41;4916580;29;1074;-47
2024/02/14 08:11:43;;;;;;;;;;;;;;;15.78;47.55;100700.22;4892770;29;1215;-49
2024/02/14 08:14:08;;;;;;;;;;;;;;;17.89;44.79;100694.50;4891723;29;1054;-49
2024/02/14 08:16:34;;;;;;;;;;;;;;;16.59;46.68;100690.97;4896162;29;1098;-47
2024/02/14 08:18:59;;;;;;;;;;;;;;;16.02;46.97;100696.78;4904213;29;1991;-49
2024/02/14 08:21:25;;;;;;;;;;;;;;;16.67;47.30;100693.03;4903812;29;1046;-48
2024/02/14 08:23:52;;;;;;;;;;;;;;;17.07;45.85;100694.50;4901214;29;1278;-49
2024/02/14 08:26:17;;;;;;;;;;;;;;;16.15;46.86;100699.41;4899553;29;1063;-48
2024/02/14 08:28:43;;;;;;;;;;;;;;;15.89;46.55;100704.75;4903597;29;2483;-47
2024/02/14 08:31:11;;;;;;;;;;;;;;;17.61;45.43;100700.19;4903997;29;1042;-49
2024/02/14 08:33:37;;;;;;;;;;;;;;;16.61;46.63;100702.31;4903521;29;1070;-47
2024/02/14 08:36:06;;;;;;;;;;;;;;;15.96;46.91;100703.38;4898211;29;1347;-50
2024/02/14 08:38:35;;;;;;;;;;;;;;;15.88;46.27;100701.22;4892644;29;1907;-49
2024/02/14 08:41:04;;;;;;;;;;;;;;;16.53;47.25;100713.53;4920301;29;1201;-54
2024/02/14 08:43:30;;;;;;;;;;;;;;;17.59;45.04;100696.78;4901047;29;1324;-49
2024/02/14 08:45:55;;;;;;;;;;;;;;;16.29;46.99;100703.72;4900033;29;1297;-44
2024/02/14 08:48:21;;;;;;;;;;;;;;;15.85;46.75;100704.09;4900980;29;1177;-44
2024/02/14 08:50:47;;;;;;;;;;;;;;;16.74;47.27;100702.25;4903701;29;1126;-49
2024/02/14 08:53:16;;;;;;;;;;;;;;;18.02;43.66;100700.53;4903906;29;1141;-44
2024/02/14 08:55:41;;;;;;;;;;;;;;;16.44;46.82;100706.22;4902585;29;1108;-46
2024/02/14 08:58:09;;;;;;;;;;;;;;;16.08;46.64;100711.44;4901132;29;2084;-45
2024/02/14 09:00:35;;;;;;;;;;;;;;;16.83;46.96;100709.53;4896682;29;1343;-48
2024/02/14 09:03:01;;;;;;;;;;;;;;;16.96;45.97;100698.84;4901280;29;1213;-47
2024/02/14 09:05:28;;;;;;;;;;;;;;;16.13;47.21;100696.03;4902914;29;1149;-48
2024/02/14 09:07:53;;;;;;;;;;;;;;;15.90;46.59;100701.97;4903230;29;1102;-45
2024/02/14 09:10:19;;;;;;;;;;;;;;;16.84;47.01;100697.94;4902435;29;1227;-47
2024/02/14 09:12:45;;;;;;;;;;;;;;;17.30;45.34;100690.09;4897862;29;1209;-46
2024/02/14 09:15:11;;;;;;;;;;;;;;;16.30;46.93;100693.97;4903399;29;1026;-45
2024/02/14 09:17:38;;;;;;;;;;;;;;;16.52;47.54;100699.38;4902617;29;1170;-45
2024/02/14 09:20:06;;;;;;;;;;;;;;;16.73;46.60;100696.09;4903322;29;1962;-46
2024/02/14 09:22:32;;;;;;;;;;;;;;;16.12;47.11;100700.47;4892629;29;1327;-45
2024/02/14 09:24:57;;;;;;;;;;;;;;;15.90;46.44;100703.78;4890648;29;1049;-50
2024/02/14 09:27:23;;;;;;;;;;;;;;;17.15;46.32;100696.63;4902088;29;1034;-46
2024/02/14 09:29:48;;;;;;;;;;;;;;;16.67;46.40;100701.00;4886099;29;2753;-48
2024/02/14 09:32:14;;;;;;;;;;;;;;;16.00;46.93;100696.03;4901630;29;1076;-48
2024/02/14 09:34:40;;;;;;;;;;;;;;;15.76;46.49;100702.13;4890747;29;1110;-50
2024/02/14 09:37:06;;;;;;;;;;;;;;;15.55;46.50;100690.25;4901500;29;1101;-50
2024/02/14 09:39:33;;;;;;;;;;;;;;;16.82;46.58;100699.88;4897016;29;1906;-48
2024/02/14 09:42:01;;;;;;;;;;;;;;;17.03;45.71;100707.19;4902626;29;1026;-48
2024/02/14 09:44:28;;;;;;;;;;;;;;;16.10;46.96;100715.66;4898709;29;1300;-49
2024/02/14 09:46:55;;;;;;;;;;;;;;;15.86;47.62;100699.66;4899883;29;1149;-45
2024/02/14 09:49:21;;;;;;;;;;;;;;;17.97;44.36;100706.22;4900459;29;1593;-48
2024/02/14 09:51:47;;;;;;;;;;;;;;;16.91;46.12;100708.97;4901466;29;1398;-47
2024/02/14 09:54:12;;;;;;;;;;;;;;;16.06;47.09;100698.28;4900980;29;1142;-48
2024/02/14 09:56:38;;;;;;;;;;;;;;;15.95;46.32;100712.25;4901039;29;1296;-47
2024/02/14 09:59:03;;;;;;;;;;;;;;;15.73;45.92;100708.47;4898661;29;2448;-45
2024/02/14 10:01:29;;;;;;;;;;;;;;;17.34;45.91;100707.53;4890190;29;1178;-45
2024/02/14 10:03:55;;;;;;;;;;;;;;;16.65;46.40;100717.91;4889077;29;1177;-49
2024/02/14 10:06:20;;;;;;;;;;;;;;;16.05;46.79;100717.78;4902626;29;1209;-45
2024/02/14 10:08:46;;;;;;;;;;;;;;;15.81;46.79;100721.22;4894825;29;1126;-48
2024/02/14 10:11:14;;;;;;;;;;;;;;;15.69;46.14;100724.72;4895308;29;1415;-47
2024/02/14 10:13:40;;;;;;;;;;;;;;;16.85;46.63;100730.69;4901669;29;964;-52
2024/02/14 10:16:08;;;;;;;;;;;;;;;16.67;46.29;100733.72;4901173;29;1106;-51
2024/02/14 10:18:34;;;;;;;;;;;;;;;15.95;46.92;100735.31;4901846;29;1899;-51
2024/02/14 10:21:00;;;;;;;;;;;;;;;15.72;46.64;100741.25;4894652;29;1293;-47
2024/02/14 10:23:29;;;;;;;;;;;;;;;15.70;47.08;100739.69;4901052;29;1157;-51
2024/02/14 10:25:58;;;;;;;;;;;;;;;17.19;45.50;100725.50;4899705;29;1757;-53
2024/02/14 10:28:23;;;;;;;;;;;;;;;16.05;47.02;100744.31;4915951;29;2488;-47
2024/02/14 10:30:52;;;;;;;;;;;;;;;15.76;46.97;100739.25;4898488;29;979;-48
2024/02/14 10:33:19;;;;;;;;;;;;;;;17.83;44.89;100741.91;4899919;29;1305;-51
2024/02/14 10:35:49;;;;;;;;;;;;;;;16.37;46.79;100733.22;5109448;27;1411;-49
2024/02/14 10:38:16;;;;;;;;;;;;;;;15.93;46.97;100737.22;5092361;28;1086;-48
2024/02/14 10:40:42;;;;;;;;;;;;;;;16.32;47.46;100740.66;5103114;28;1333;-47
2024/02/14 10:43:09;;;;;;;;;;;;;;;17.67;44.68;100742.25;5102753;28;1182;-48
2024/02/14 10:45:35;;;;;;;;;;;;;;;16.23;46.87;100750.13;5111139;28;1983;-47
2024/02/14 10:48:01;;;;;;;;;;;;;;;16.10;47.72;100759.94;5109406;28;1121;-47
2024/02/14 10:50:27;;;;;;;;;;;;;;;18.12;43.97;100761.88;5100732;28;954;-49
2024/02/14 10:52:53;;;;;;;;;;;;;;;16.50;46.44;100761.50;5109868;28;1122;-50
2024/02/14 10:55:18;;;;;;;;;;;;;;;16.13;46.48;100762.38;5112113;28;994;-46
2024/02/14 10:57:45;;;;;;;;;;;;;;;15.96;46.26;100756.44;5100220;28;1317;-46
2024/02/14 11:00:13;;;;;;;;;;;;;;;15.73;45.62;100753.56;5095334;28;2850;-48
2024/02/14 11:02:38;;;;;;;;;;;;;;;17.30;45.91;100758.41;5095684;28;1086;-45
2024/02/14 11:05:04;;;;;;;;;;;;;;;16.51;46.30;100766.75;5109355;28;1909;-47
2024/02/14 11:07:31;;;;;;;;;;;;;;;15.94;46.62;100776.03;5098092;28;1314;-45
2024/02/14 11:10:01;;;;;;;;;;;;;;;16.61;47.12;100774.03;5096731;28;1328;-45
2024/02/14 11:12:27;;;;;;;;;;;;;;;17.52;44.88;100773.56;5106392;28;1221;-46
2024/02/14 11:14:56;;;;;;;;;;;;;;;16.36;46.48;100770.50;5091694;28;1259;-49
2024/02/14 11:17:26;;;;;;;;;;;;;;;15.99;46.26;100777.47;5102775;28;1062;-46
2024/02/14 11:19:52;;;;;;;;;;;;;;;15.69;46.55;100762.69;5095052;28;1189;-44
2024/02/14 11:22:18;;;;;;;;;;;;;;;15.59;46.11;100781.03;5092648;28;1116;-49
2024/02/14 11:24:47;;;;;;;;;;;;;;;15.57;46.47;100777.63;5098345;28;1981;-47
2024/02/14 11:27:12;;;;;;;;;;;;;;;17.64;45.00;100777.09;5093123;28;1109;-46
2024/02/14 11:29:41;;;;;;;;;;;;;;;16.48;46.62;100784.69;5098450;28;2061;-45
2024/02/14 11:32:09;;;;;;;;;;;;;;;16.91;46.52;100775.41;5112728;28;1100;-47
2024/02/14 11:34:34;;;;;;;;;;;;;;;17.60;44.66;100779.13;5109062;28;1236;-49
2024/02/14 11:37:00;;;;;;;;;;;;;;;16.44;46.34;100784.06;5129287;28;1346;-49
2024/02/14 11:39:26;;;;;;;;;;;;;;;16.08;46.38;100775.94;5128576;28;1133;-49
2024/02/14 11:41:51;;;;;;;;;;;;;;;15.73;46.13;100780.06;5132988;28;1307;-47
2024/02/14 11:44:18;;;;;;;;;;;;;;;17.49;45.39;100777.31;5119394;28;1913;-46
2024/02/14 11:46:44;;;;;;;;;;;;;;;16.86;46.01;100777.53;5122094;28;1284;-46
2024/02/14 11:49:09;;;;;;;;;;;;;;;16.12;46.65;100773.94;5113612;28;1082;-45
2024/02/14 11:51:38;;;;;;;;;;;;;;;16.67;47.08;100801.94;5108467;28;1201;-49
2024/02/14 11:54:07;;;;;;;;;;;;;;;17.41;44.87;100784.19;5115984;28;1340;-47
2024/02/14 11:56:36;;;;;;;;;;;;;;;16.38;46.61;100790.66;5101095;28;1043;-44
2024/02/14 11:59:05;;;;;;;;;;;;;;;16.07;47.34;100791.97;5105162;28;2358;-43
2024/02/14 12:01:34;;;;;;;;;;;;;;;18.07;43.68;100778.22;5108274;28;1201;-44
2024/02/14 12:04:03;;;;;;;;;;;;;;;16.58;46.12;100783.06;5108153;28;1906;-43
2024/02/14 12:06:31;;;;;;;;;;;;;;;16.06;46.22;100774.38;5103580;28;868;-44
2024/02/14 12:09:01;;;;;;;;;;;;;;;15.86;46.14;100779.25;5106970;28;1103;-45
2024/02/14 12:11:27;;;;;;;;;;;;;;;15.76;45.45;100789.63;5094658;28;1274;-48
2024/02/14 12:13:53;;;;;;;;;;;;;;;16.96;46.08;100786.53;5102426;28;1118;-48
2024/02/14 12:16:22;;;;;;;;;;;;;;;17.34;45.07;100782.00;5118224;28;1186;-45
2024/02/14 12:18:48;;;;;;;;;;;;;;;16.27;46.64;100774.66;5105787;28;1189;-47
2024/02/14 12:21:13;;;;;;;;;;;;;;;15.90;46.51;100788.66;5098156;28;1126;-48
2024/02/14 12:23:39;;;;;;;;;;;;;;;16.72;46.64;100797.13;5110806;28;1902;-47
2024/02/14 12:26:04;;;;;;;;;;;;;;;17.53;44.55;100790.38;5108268;28;1017;-44
2024/02/14 12:28:31;;;;;;;;;;;;;;;16.40;46.26;100801.16;5112788;28;2495;-48
2024/02/14 12:30:56;;;;;;;;;;;;;;;16.06;45.96;100782.34;5105149;28;1142;-46
2024/02/14 12:33:23;;;;;;;;;;;;;;;15.75;46.07;100783.47;5105627;28;1105;-46
2024/02/14 12:35:49;;;;;;;;;;;;;;;15.67;45.59;100784.00;5080382;28;1091;-47
2024/02/14 12:38:16;;;;;;;;;;;;;;;16.89;46.08;100791.47;5103580;28;1391;-45
2024/02/14 12:40:42;;;;;;;;;;;;;;;17.40;44.74;100783.31;5108184;28;1118;-45
2024/02/14 12:43:08;;;;;;;;;;;;;;;16.33;46.16;100795.44;5115417;28;1013;-45